createdAt,value
2018-12-27T00:00:15.664Z,66.53
2018-12-27T00:03:02.559Z,66.50
2018-12-27T00:05:49.883Z,66.69
2018-12-27T00:08:37.046Z,66.76
2018-12-27T00:11:24.463Z,66.54
2018-12-27T00:14:11.627Z,66.34
2018-12-27T00:16:58.743Z,66.12
2018-12-27T00:19:46.006Z,65.94
2018-12-27T00:22:33.126Z,65.89
2018-12-27T00:25:20.526Z,65.91
2018-12-27T00:28:07.491Z,65.85
2018-12-27T00:30:54.410Z,65.54
2018-12-27T00:33:41.654Z,65.66
2018-12-27T00:36:29.065Z,65.96
2018-12-27T00:39:16.676Z,66.23
2018-12-27T00:42:03.650Z,65.96
2018-12-27T00:44:51.064Z,65.81
2018-12-27T00:47:38.642Z,66.29
2018-12-27T00:50:25.788Z,66.72
2018-12-27T00:53:13.313Z,66.12
2018-12-27T00:56:00.587Z,65.77
2018-12-27T00:58:48.234Z,65.61
2018-12-27T01:01:35.449Z,65.57
2018-12-27T01:04:22.683Z,66.44
2018-12-27T01:07:09.685Z,67.05
2018-12-27T01:09:57.112Z,66.73
2018-12-27T01:12:44.555Z,66.53
2018-12-27T01:15:31.851Z,66.08
2018-12-27T01:18:18.914Z,65.65
2018-12-27T01:21:06.176Z,65.63
2018-12-27T01:23:53.466Z,65.73
2018-12-27T01:26:40.515Z,66.56
2018-12-27T01:29:27.730Z,66.31
2018-12-27T01:32:14.603Z,67.49
2018-12-27T01:35:01.985Z,67.01
2018-12-27T01:37:49.409Z,66.54
2018-12-27T01:40:36.396Z,66.69
2018-12-27T01:43:23.859Z,66.41
2018-12-27T01:46:11.366Z,66.19
2018-12-27T01:48:58.831Z,65.98
2018-12-27T01:51:47.246Z,66.12
2018-12-27T01:54:34.798Z,65.99
2018-12-27T01:57:21.876Z,65.90
2018-12-27T02:00:09.405Z,66.74
2018-12-27T02:02:56.647Z,66.51
2018-12-27T02:05:44.118Z,65.93
2018-12-27T02:08:31.246Z,66.14
2018-12-27T02:11:18.742Z,67.00
2018-12-27T02:14:06.970Z,67.53
2018-12-27T02:16:54.585Z,67.48
2018-12-27T02:19:41.803Z,67.04
2018-12-27T02:22:29.079Z,66.78
2018-12-27T02:25:16.486Z,66.71
2018-12-27T02:28:03.732Z,67.24
2018-12-27T02:30:50.678Z,67.35
2018-12-27T02:33:37.648Z,67.79
2018-12-27T02:36:25.120Z,68.54
2018-12-27T02:39:12.357Z,68.43
2018-12-27T02:41:59.669Z,69.05
2018-12-27T02:44:46.995Z,68.36
2018-12-27T02:47:34.540Z,68.86
2018-12-27T02:50:21.979Z,68.06
2018-12-27T02:53:09.376Z,68.46
2018-12-27T02:55:56.537Z,67.92
2018-12-27T02:58:43.735Z,68.33
2018-12-27T03:01:31.189Z,67.50
2018-12-27T03:04:18.923Z,67.49
2018-12-27T03:07:05.825Z,67.37
2018-12-27T03:09:53.327Z,67.64
2018-12-27T03:12:40.346Z,67.46
2018-12-27T03:15:27.591Z,67.51
2018-12-27T03:18:15.072Z,67.47
2018-12-27T03:21:02.208Z,67.30
2018-12-27T03:23:49.822Z,67.18
2018-12-27T03:26:36.905Z,67.20
2018-12-27T03:29:24.114Z,67.31
2018-12-27T03:32:11.396Z,67.63
2018-12-27T03:34:58.570Z,67.04
2018-12-27T03:37:45.977Z,67.00
2018-12-27T03:40:33.166Z,66.89
2018-12-27T03:43:20.321Z,67.65
2018-12-27T03:46:07.221Z,67.45
2018-12-27T03:48:54.506Z,67.46
2018-12-27T03:51:41.827Z,67.26
2018-12-27T03:54:29.014Z,67.14
2018-12-27T03:57:16.524Z,66.89
2018-12-27T04:00:04.167Z,66.37
2018-12-27T04:02:51.332Z,66.33
2018-12-27T04:05:38.325Z,66.33
2018-12-27T04:08:25.282Z,66.55
2018-12-27T04:11:12.227Z,66.66
2018-12-27T04:13:59.385Z,67.01
2018-12-27T04:16:46.800Z,67.00
2018-12-27T04:19:34.039Z,66.45
2018-12-27T04:22:21.437Z,66.42
2018-12-27T04:25:08.957Z,66.29
2018-12-27T04:27:55.871Z,66.23
2018-12-27T04:30:43.159Z,66.30
2018-12-27T04:33:30.850Z,66.00
2018-12-27T04:36:18.092Z,65.89
2018-12-27T04:39:07.273Z,66.61
2018-12-27T04:41:54.476Z,66.42
2018-12-27T04:44:41.858Z,66.55
2018-12-27T04:47:29.290Z,68.04
2018-12-27T04:50:16.172Z,67.34
2018-12-27T04:53:03.278Z,66.82
2018-12-27T04:55:50.425Z,66.77
2018-12-27T04:58:37.299Z,66.17
2018-12-27T05:01:24.386Z,66.23
2018-12-27T05:04:18.085Z,66.81
2018-12-27T05:07:00.266Z,66.61
2018-12-27T05:09:47.417Z,66.29
2018-12-27T05:12:34.733Z,68.24
2018-12-27T05:15:21.827Z,67.87
2018-12-27T05:18:09.359Z,68.61
2018-12-27T05:20:56.652Z,68.36
2018-12-27T05:23:43.909Z,68.82
2018-12-27T05:26:31.304Z,69.35
2018-12-27T05:29:18.447Z,71.22
2018-12-27T05:32:05.414Z,70.82
2018-12-27T05:34:52.908Z,69.00
2018-12-27T05:37:39.686Z,67.90
2018-12-27T05:40:26.810Z,67.45
2018-12-27T05:43:13.658Z,67.84
2018-12-27T05:46:00.893Z,68.16
2018-12-27T05:48:48.329Z,67.69
2018-12-27T05:51:35.701Z,66.95
2018-12-27T05:54:22.572Z,66.71
2018-12-27T05:57:09.979Z,66.50
2018-12-27T05:59:57.281Z,66.21
2018-12-27T06:02:44.958Z,65.54
2018-12-27T06:05:32.087Z,66.41
2018-12-27T06:08:19.308Z,66.33
2018-12-27T06:11:06.735Z,65.69
2018-12-27T06:13:54.038Z,65.63
2018-12-27T06:16:41.386Z,65.40
2018-12-27T06:19:28.500Z,65.50
2018-12-27T06:22:15.692Z,65.38
2018-12-27T06:25:02.827Z,65.09
2018-12-27T06:27:50.217Z,65.34
2018-12-27T06:30:37.417Z,64.92
2018-12-27T06:33:24.630Z,64.58
2018-12-27T06:36:11.746Z,64.35
2018-12-27T06:38:59.094Z,65.60
2018-12-27T06:41:46.228Z,65.18
2018-12-27T06:44:33.098Z,65.24
2018-12-27T06:47:20.458Z,64.82
2018-12-27T06:50:07.400Z,64.70
2018-12-27T06:52:54.747Z,64.56
2018-12-27T06:55:42.036Z,64.59
2018-12-27T06:58:29.502Z,64.49
2018-12-27T07:01:16.904Z,64.32
2018-12-27T07:04:04.370Z,64.10
2018-12-27T07:06:51.361Z,64.27
2018-12-27T07:09:38.467Z,64.03
2018-12-27T07:12:25.644Z,63.76
2018-12-27T07:15:12.411Z,63.74
2018-12-27T07:17:59.396Z,63.76
2018-12-27T07:20:46.467Z,63.69
2018-12-27T07:23:33.523Z,63.58
2018-12-27T07:26:20.612Z,63.47
2018-12-27T07:29:08.056Z,63.36
2018-12-27T07:31:55.348Z,63.34
2018-12-27T07:34:42.492Z,63.40
2018-12-27T07:37:29.962Z,63.42
2018-12-27T07:40:16.880Z,63.48
2018-12-27T07:43:04.044Z,63.56
2018-12-27T07:45:51.234Z,63.28
2018-12-27T07:48:38.582Z,63.09
2018-12-27T07:51:25.550Z,63.04
2018-12-27T07:54:13.031Z,62.84
2018-12-27T07:56:59.920Z,62.41
2018-12-27T07:59:47.353Z,62.99
2018-12-27T08:02:34.423Z,62.95
2018-12-27T08:05:21.840Z,63.19
2018-12-27T08:08:08.926Z,63.57
2018-12-27T08:10:56.242Z,62.95
2018-12-27T08:13:43.702Z,62.52
2018-12-27T08:16:30.890Z,62.40
2018-12-27T08:19:18.012Z,62.35
2018-12-27T08:22:05.159Z,62.42
2018-12-27T08:24:52.442Z,62.49
2018-12-27T08:27:39.594Z,62.12
2018-12-27T08:30:26.813Z,62.00
2018-12-27T08:33:14.251Z,61.91
2018-12-27T08:36:01.208Z,62.55
2018-12-27T08:38:48.267Z,61.86
2018-12-27T08:41:35.480Z,62.17
2018-12-27T08:44:22.864Z,61.91
2018-12-27T08:47:10.219Z,61.58
2018-12-27T08:49:57.356Z,61.39
2018-12-27T08:52:44.818Z,61.18
2018-12-27T08:55:31.947Z,60.70
2018-12-27T08:58:18.998Z,60.90
2018-12-27T09:01:06.556Z,60.91
2018-12-27T09:03:53.952Z,59.90
2018-12-27T09:06:41.320Z,60.01
2018-12-27T09:09:28.442Z,58.91
2018-12-27T09:12:15.313Z,59.21
2018-12-27T09:15:02.666Z,58.42
2018-12-27T09:17:50.041Z,57.66
2018-12-27T09:20:37.258Z,57.37
2018-12-27T09:23:24.385Z,56.62
2018-12-27T09:26:11.452Z,56.47
2018-12-27T09:28:58.626Z,55.95
2018-12-27T09:31:45.634Z,56.02
2018-12-27T09:34:33.001Z,56.54
2018-12-27T09:37:20.441Z,56.14
2018-12-27T09:40:07.418Z,55.95
2018-12-27T09:42:54.502Z,55.33
2018-12-27T09:45:41.697Z,54.87
2018-12-27T09:48:29.052Z,54.92
2018-12-27T09:51:16.083Z,54.57
2018-12-27T09:54:03.098Z,53.75
2018-12-27T09:56:50.385Z,54.57
2018-12-27T09:59:37.855Z,54.56
2018-12-27T10:02:24.947Z,54.31
2018-12-27T10:05:11.807Z,54.95
2018-12-27T10:07:59.187Z,54.73
2018-12-27T10:10:46.661Z,54.42
2018-12-27T10:13:33.935Z,53.80
2018-12-27T10:16:21.048Z,54.39
2018-12-27T10:19:08.169Z,54.04
2018-12-27T10:21:55.492Z,54.30
2018-12-27T10:24:42.489Z,54.04
2018-12-27T10:27:29.940Z,53.54
2018-12-27T10:30:17.079Z,52.80
2018-12-27T10:33:04.614Z,53.33
2018-12-27T10:35:51.808Z,52.91
2018-12-27T10:38:39.089Z,52.61
2018-12-27T10:41:26.424Z,52.95
2018-12-27T10:44:13.600Z,53.69
2018-12-27T10:47:00.431Z,53.83
2018-12-27T10:49:47.563Z,53.60
2018-12-27T10:52:34.717Z,53.05
2018-12-27T10:55:21.947Z,52.48
2018-12-27T10:58:09.287Z,52.80
2018-12-27T11:00:56.703Z,52.71
2018-12-27T11:03:43.804Z,51.98
2018-12-27T11:06:31.199Z,52.06
2018-12-27T11:09:18.152Z,52.55
2018-12-27T11:12:05.632Z,52.61
2018-12-27T11:14:52.900Z,52.00
2018-12-27T11:17:41.040Z,52.38
2018-12-27T11:20:27.840Z,51.95
2018-12-27T11:23:15.078Z,52.07
2018-12-27T11:26:02.183Z,52.03
2018-12-27T11:28:49.603Z,52.00
2018-12-27T11:31:37.031Z,52.04
2018-12-27T11:34:24.331Z,52.05
2018-12-27T11:37:11.335Z,51.36
2018-12-27T11:39:58.440Z,51.27
2018-12-27T11:42:45.905Z,51.29
2018-12-27T11:45:33.311Z,51.05
2018-12-27T11:48:20.589Z,51.92
2018-12-27T11:51:08.746Z,52.25
2018-12-27T11:53:55.668Z,51.76
2018-12-27T11:56:42.732Z,51.46
2018-12-27T11:59:30.267Z,51.78
2018-12-27T12:02:17.739Z,51.17
2018-12-27T12:05:06.217Z,50.91
2018-12-27T12:07:53.759Z,50.83
2018-12-27T12:10:41.186Z,51.28
2018-12-27T12:13:28.257Z,51.03
2018-12-27T12:16:15.380Z,51.03
2018-12-27T12:19:02.605Z,51.48
2018-12-27T12:21:50.159Z,51.39
2018-12-27T12:24:37.584Z,52.07
2018-12-27T12:27:24.724Z,51.92
2018-12-27T12:30:12.162Z,52.08
2018-12-27T12:32:59.265Z,52.16
2018-12-27T12:35:46.563Z,52.01
2018-12-27T12:38:33.896Z,51.99
2018-12-27T12:41:21.027Z,51.79
2018-12-27T12:44:08.388Z,52.03
2018-12-27T12:46:55.187Z,51.96
2018-12-27T12:49:42.509Z,51.53
2018-12-27T12:52:29.608Z,51.87
2018-12-27T12:55:17.055Z,52.27
2018-12-27T12:58:04.057Z,51.84
2018-12-27T13:00:51.051Z,52.56
2018-12-27T13:03:37.999Z,51.97
2018-12-27T13:06:25.294Z,52.07
2018-12-27T13:09:12.516Z,52.45
2018-12-27T13:11:59.618Z,52.50
2018-12-27T13:14:46.681Z,52.15
2018-12-27T13:17:33.578Z,51.81
2018-12-27T13:20:21.379Z,52.31
2018-12-27T13:23:08.382Z,51.76
2018-12-27T13:25:55.566Z,51.53
2018-12-27T13:28:42.671Z,51.08
2018-12-27T13:31:29.564Z,51.35
2018-12-27T13:34:17.094Z,51.32
2018-12-27T13:37:04.265Z,52.72
2018-12-27T13:39:51.483Z,54.17
2018-12-27T13:42:38.670Z,54.15
2018-12-27T13:45:26.147Z,54.34
2018-12-27T13:48:13.494Z,54.41
2018-12-27T13:51:00.574Z,54.14
2018-12-27T13:53:47.738Z,54.22
2018-12-27T13:56:34.810Z,54.25
2018-12-27T13:59:21.615Z,54.31
2018-12-27T14:02:08.725Z,54.97
2018-12-27T14:04:56.167Z,54.91
2018-12-27T14:07:43.289Z,55.20
2018-12-27T14:10:30.811Z,55.41
2018-12-27T14:13:18.225Z,55.45
2018-12-27T14:16:05.303Z,55.88
2018-12-27T14:18:52.703Z,55.70
2018-12-27T14:21:39.794Z,55.97
2018-12-27T14:24:27.052Z,56.18
2018-12-27T14:27:14.248Z,56.37
2018-12-27T14:30:01.384Z,56.28
2018-12-27T14:32:48.580Z,56.45
2018-12-27T14:35:35.612Z,56.48
2018-12-27T14:38:22.736Z,56.66
2018-12-27T14:41:10.005Z,56.47
2018-12-27T14:43:57.016Z,56.31
2018-12-27T14:46:44.128Z,56.25
2018-12-27T14:49:31.369Z,56.21
2018-12-27T14:52:18.662Z,56.56
2018-12-27T14:55:06.240Z,56.58
2018-12-27T14:57:53.721Z,56.57
2018-12-27T15:00:41.130Z,56.77
2018-12-27T15:03:28.577Z,56.86
2018-12-27T15:06:18.516Z,56.96
2018-12-27T15:09:07.014Z,57.01
2018-12-27T15:11:54.019Z,57.10
2018-12-27T15:14:41.046Z,57.63
2018-12-27T15:17:28.173Z,58.18
2018-12-27T15:20:15.625Z,58.12
2018-12-27T15:23:02.703Z,58.26
2018-12-27T15:25:49.988Z,58.99
2018-12-27T15:28:37.504Z,58.98
2018-12-27T15:31:24.636Z,59.19
2018-12-27T15:34:11.456Z,59.63
2018-12-27T15:36:58.569Z,59.48
2018-12-27T15:39:46.384Z,59.56
2018-12-27T15:42:33.381Z,60.83
2018-12-27T15:45:20.824Z,60.57
2018-12-27T15:48:09.057Z,60.19
2018-12-27T15:50:56.615Z,60.36
2018-12-27T15:53:44.650Z,61.42
2018-12-27T15:56:31.949Z,60.85
2018-12-27T15:59:18.931Z,61.16
2018-12-27T16:02:05.704Z,61.39
2018-12-27T16:04:53.026Z,61.34
2018-12-27T16:07:40.344Z,61.65
2018-12-27T16:10:27.820Z,61.57
2018-12-27T16:13:14.888Z,61.82
2018-12-27T16:16:01.887Z,61.28
2018-12-27T16:18:49.293Z,61.66
2018-12-27T16:21:37.340Z,62.03
2018-12-27T16:24:24.373Z,61.45
2018-12-27T16:27:11.740Z,61.18
2018-12-27T16:29:59.143Z,61.26
2018-12-27T16:32:46.284Z,60.93
2018-12-27T16:35:33.382Z,60.98
2018-12-27T16:38:20.833Z,61.10
2018-12-27T16:41:08.044Z,60.78
2018-12-27T16:43:55.499Z,60.63
2018-12-27T16:46:42.543Z,60.82
2018-12-27T16:49:29.937Z,60.67
2018-12-27T16:52:17.017Z,61.18
2018-12-27T16:55:04.706Z,61.03
2018-12-27T16:57:51.769Z,62.52
2018-12-27T17:00:38.944Z,62.47
2018-12-27T17:03:26.118Z,62.79
2018-12-27T17:06:13.364Z,62.35
2018-12-27T17:09:00.733Z,61.65
2018-12-27T17:11:49.897Z,61.06
2018-12-27T17:14:37.241Z,60.71
2018-12-27T17:17:25.462Z,60.80
2018-12-27T17:20:12.383Z,60.87
2018-12-27T17:23:00.381Z,61.86
2018-12-27T17:25:47.623Z,62.79
2018-12-27T17:28:35.391Z,62.59
2018-12-27T17:31:22.697Z,62.36
2018-12-27T17:34:09.806Z,62.33
2018-12-27T17:36:57.008Z,61.82
2018-12-27T17:39:44.089Z,61.83
2018-12-27T17:42:31.407Z,61.98
2018-12-27T17:45:18.530Z,61.38
2018-12-27T17:48:05.725Z,61.10
2018-12-27T17:50:52.748Z,61.28
2018-12-27T17:53:39.920Z,61.21
2018-12-27T17:56:27.110Z,61.42
2018-12-27T17:59:14.552Z,61.41
2018-12-27T18:02:01.882Z,61.01
2018-12-27T18:04:49.230Z,61.08
2018-12-27T18:07:36.636Z,62.62
2018-12-27T18:10:23.704Z,62.17
2018-12-27T18:13:11.091Z,63.88
2018-12-27T18:15:58.123Z,63.42
2018-12-27T18:18:47.649Z,62.33
2018-12-27T18:21:34.468Z,61.74
2018-12-27T18:24:21.905Z,61.50
2018-12-27T18:27:10.246Z,61.75
2018-12-27T18:29:57.279Z,61.83
2018-12-27T18:32:45.461Z,62.06
2018-12-27T18:35:32.679Z,61.62
2018-12-27T18:38:19.959Z,61.27
2018-12-27T18:41:06.751Z,61.04
2018-12-27T18:43:53.875Z,60.87
2018-12-27T18:46:41.434Z,60.80
2018-12-27T18:49:28.628Z,60.63
2018-12-27T18:52:16.441Z,60.64
2018-12-27T18:55:04.857Z,60.66
2018-12-27T18:57:52.319Z,60.58
2018-12-27T19:00:39.412Z,60.47
2018-12-27T19:03:26.425Z,60.46
2018-12-27T19:06:14.027Z,60.52
2018-12-27T19:09:01.131Z,61.50
2018-12-27T19:12:24.294Z,60.95
2018-12-27T19:15:11.944Z,60.72
2018-12-27T19:17:59.180Z,60.66
2018-12-27T19:20:49.514Z,60.66
2018-12-27T19:23:37.923Z,60.56
2018-12-27T19:26:25.238Z,60.42
2018-12-27T19:29:12.757Z,60.56
2018-12-27T19:31:59.936Z,61.12
2018-12-27T19:34:48.883Z,61.43
2018-12-27T19:37:37.765Z,61.31
2018-12-27T19:40:25.308Z,61.05
2018-12-27T19:43:12.596Z,62.89
2018-12-27T19:45:59.774Z,61.70
2018-12-27T19:48:47.186Z,61.10
2018-12-27T19:51:34.935Z,60.93
2018-12-27T19:54:22.702Z,60.94
2018-12-27T19:57:09.539Z,60.90
2018-12-27T19:59:56.836Z,61.01
2018-12-27T20:02:44.386Z,61.28
2018-12-27T20:05:31.523Z,61.68
2018-12-27T20:08:18.895Z,61.83
2018-12-27T20:11:06.340Z,61.75
2018-12-27T20:13:53.590Z,63.35
2018-12-27T20:16:40.824Z,62.97
2018-12-27T20:19:27.908Z,62.54
2018-12-27T20:22:15.348Z,62.18
2018-12-27T20:25:02.371Z,62.09
2018-12-27T20:27:49.577Z,62.07
2018-12-27T20:30:36.784Z,62.27
2018-12-27T20:33:23.840Z,62.28
2018-12-27T20:36:12.387Z,62.44
2018-12-27T20:38:59.549Z,62.75
2018-12-27T20:41:46.872Z,62.61
2018-12-27T20:44:34.031Z,62.85
2018-12-27T20:47:21.662Z,63.29
2018-12-27T20:50:09.163Z,63.14
2018-12-27T20:52:56.461Z,62.82
2018-12-27T20:55:43.910Z,62.33
2018-12-27T20:58:31.289Z,62.16
2018-12-27T21:01:18.696Z,62.12
2018-12-27T21:04:05.805Z,62.08
2018-12-27T21:06:53.344Z,62.03
2018-12-27T21:09:40.718Z,62.09
2018-12-27T21:12:27.551Z,62.25
2018-12-27T21:15:14.651Z,62.48
2018-12-27T21:18:02.515Z,62.54
2018-12-27T21:20:49.822Z,62.60
2018-12-27T21:23:37.195Z,62.54
2018-12-27T21:26:24.063Z,62.49
2018-12-27T21:29:11.346Z,62.47
2018-12-27T21:31:58.474Z,63.25
2018-12-27T21:34:45.443Z,64.09
2018-12-27T21:37:32.604Z,63.44
2018-12-27T21:40:19.445Z,63.31
2018-12-27T21:43:06.535Z,63.85
2018-12-27T21:45:53.898Z,64.11
2018-12-27T21:48:41.360Z,63.65
2018-12-27T21:51:28.200Z,63.39
2018-12-27T21:54:15.013Z,63.57
2018-12-27T21:57:02.108Z,63.73
2018-12-27T21:59:48.875Z,63.68
2018-12-27T22:02:36.334Z,63.71
2018-12-27T22:05:23.835Z,63.58
2018-12-27T22:08:10.957Z,63.37
2018-12-27T22:10:58.280Z,63.60
2018-12-27T22:13:45.542Z,63.63
2018-12-27T22:16:32.889Z,63.72
2018-12-27T22:19:20.213Z,63.82
2018-12-27T22:22:07.757Z,64.31
2018-12-27T22:24:55.107Z,64.49
2018-12-27T22:27:43.700Z,64.29
2018-12-27T22:30:31.062Z,63.68
2018-12-27T22:33:18.491Z,63.47
2018-12-27T22:36:05.538Z,64.00
2018-12-27T22:38:52.655Z,63.59
2018-12-27T22:41:39.528Z,63.82
2018-12-27T22:44:26.514Z,63.84
2018-12-27T22:47:13.674Z,63.58
2018-12-27T22:50:00.979Z,63.44
2018-12-27T22:52:48.221Z,63.82
2018-12-27T22:55:35.383Z,63.99
2018-12-27T22:58:22.474Z,63.82
2018-12-27T23:01:10.086Z,63.38
2018-12-27T23:03:57.160Z,63.36
2018-12-27T23:06:44.241Z,63.59
2018-12-27T23:09:31.309Z,63.28
2018-12-27T23:12:18.827Z,63.49
2018-12-27T23:15:06.119Z,63.25
2018-12-27T23:17:52.983Z,62.95
2018-12-27T23:20:40.099Z,63.16
2018-12-27T23:23:27.295Z,63.19
2018-12-27T23:26:14.362Z,63.14
2018-12-27T23:29:01.609Z,63.35
2018-12-27T23:31:48.917Z,63.26
2018-12-27T23:34:36.002Z,63.56
2018-12-27T23:37:23.119Z,63.49
2018-12-27T23:40:10.433Z,64.84
2018-12-27T23:42:57.600Z,64.57
2018-12-27T23:45:44.577Z,64.08
2018-12-27T23:48:31.572Z,64.79
2018-12-27T23:51:18.419Z,64.50
2018-12-27T23:54:05.715Z,64.01
2018-12-27T23:56:52.779Z,64.09
2018-12-27T23:59:40.188Z,63.75
